createdAt,value
2023-02-14T00:00:40.176Z,0.06
2023-02-14T00:03:25.463Z,0.08
2023-02-14T00:06:11.039Z,-0.17
2023-02-14T00:08:55.212Z,-0.36
2023-02-14T00:11:39.242Z,0.08
2023-02-14T00:14:40.780Z,-0.31
2023-02-14T00:17:24.478Z,-0.04
2023-02-14T00:20:10.833Z,0.10
2023-02-14T00:22:54.929Z,0.15
2023-02-14T00:25:38.684Z,0.07
2023-02-14T00:28:22.527Z,-0.38
2023-02-14T00:31:06.536Z,-0.14
2023-02-14T00:33:50.462Z,0.06
2023-02-14T00:36:36.066Z,-0.04
2023-02-14T00:39:21.234Z,-0.01
2023-02-14T00:42:05.184Z,-0.18
2023-02-14T00:44:49.062Z,-0.05
2023-02-14T00:47:33.101Z,-0.05
2023-02-14T00:50:17.200Z,-0.01
2023-02-14T00:53:02.859Z,-0.07
2023-02-14T00:55:47.314Z,0.01
2023-02-14T00:58:32.601Z,0.07
2023-02-14T01:01:18.195Z,-0.19
2023-02-14T01:04:02.195Z,-0.63
2023-02-14T01:06:46.109Z,-0.09
2023-02-14T01:09:31.927Z,-0.19
2023-02-14T01:12:19.214Z,-0.20
2023-02-14T01:15:03.246Z,-0.39
2023-02-14T01:17:48.538Z,-0.04
2023-02-14T01:20:32.393Z,-0.08
2023-02-14T01:23:16.314Z,0.07
2023-02-14T01:26:05.918Z,-0.15
2023-02-14T01:28:50.084Z,0.05
2023-02-14T01:31:35.763Z,0.04
2023-02-14T01:34:19.768Z,-0.53
2023-02-14T01:37:04.035Z,-0.32
2023-02-14T01:39:47.783Z,0.01
2023-02-14T01:42:34.909Z,0.22
2023-02-14T01:45:22.718Z,0.22
2023-02-14T01:48:06.580Z,0.11
2023-02-14T01:50:53.882Z,0.07
2023-02-14T01:53:38.604Z,0.31
2023-02-14T01:56:29.293Z,0.06
2023-02-14T01:59:19.395Z,0.29
2023-02-14T02:02:03.621Z,0.52
2023-02-14T02:04:48.155Z,0.48
2023-02-14T02:07:31.946Z,0.13
2023-02-14T02:10:15.727Z,0.31
2023-02-14T02:13:03.255Z,0.37
2023-02-14T02:15:57.366Z,0.35
2023-02-14T02:18:59.723Z,0.15
2023-02-14T02:22:05.710Z,0.16
2023-02-14T02:24:57.381Z,0.20
2023-02-14T02:28:17.613Z,0.20
2023-02-14T02:31:29.551Z,0.16
2023-02-14T02:34:36.701Z,0.02
2023-02-14T02:37:37.296Z,0.09
2023-02-14T02:40:35.186Z,-0.05
2023-02-14T02:43:31.998Z,-0.30
2023-02-14T02:46:40.836Z,-0.20
2023-02-14T02:50:03.955Z,-0.05
2023-02-14T02:53:07.206Z,-0.03
2023-02-14T02:56:16.003Z,-0.14
2023-02-14T02:59:06.987Z,-0.17
2023-02-14T03:01:56.211Z,-0.12
2023-02-14T03:04:54.791Z,-0.13
2023-02-14T03:07:41.708Z,-0.11
2023-02-14T03:10:31.653Z,-0.30
2023-02-14T03:13:48.509Z,-0.42
2023-02-14T03:16:36.613Z,-0.39
2023-02-14T03:19:50.253Z,-0.20
2023-02-14T03:22:44.733Z,-0.10
2023-02-14T03:25:42.921Z,-0.19
2023-02-14T03:28:35.018Z,-0.34
2023-02-14T03:31:25.463Z,-0.22
2023-02-14T03:34:15.590Z,-0.38
2023-02-14T03:37:04.561Z,-0.22
2023-02-14T03:39:59.305Z,-0.36
2023-02-14T03:42:48.562Z,-0.36
2023-02-14T03:45:36.950Z,-0.44
2023-02-14T03:48:25.219Z,-0.44
2023-02-14T03:51:10.886Z,-0.70
2023-02-14T03:53:58.487Z,-0.85
2023-02-14T03:56:46.867Z,-1.00
2023-02-14T03:59:32.659Z,-1.06
2023-02-14T04:02:21.459Z,-0.80
2023-02-14T04:05:11.085Z,-0.66
2023-02-14T04:07:57.364Z,-1.14
2023-02-14T04:10:43.323Z,-1.04
2023-02-14T04:13:27.747Z,-0.90
2023-02-14T04:16:13.051Z,-0.83
2023-02-14T04:19:14.462Z,-1.52
2023-02-14T04:21:58.237Z,-1.28
2023-02-14T04:24:42.170Z,-0.95
2023-02-14T04:27:25.994Z,-0.80
2023-02-14T04:30:12.613Z,-0.77
2023-02-14T04:32:58.032Z,-1.04
2023-02-14T04:35:41.906Z,-0.82
2023-02-14T04:38:25.618Z,-0.75
2023-02-14T04:41:09.406Z,-0.68
2023-02-14T04:43:53.241Z,-0.54
2023-02-14T04:46:37.060Z,-0.66
2023-02-14T04:49:22.381Z,-1.11
2023-02-14T04:52:07.477Z,-0.99
2023-02-14T04:54:51.305Z,-0.68
2023-02-14T04:57:35.143Z,-0.71
2023-02-14T05:00:20.109Z,-0.59
2023-02-14T05:03:04.061Z,-0.61
2023-02-14T05:05:49.334Z,-0.88
2023-02-14T05:08:33.175Z,-1.62
2023-02-14T05:11:17.110Z,-1.23
2023-02-14T05:14:01.060Z,-1.30
2023-02-14T05:16:45.134Z,-1.39
2023-02-14T05:19:29.159Z,-1.12
2023-02-14T05:22:15.388Z,-0.86
2023-02-14T05:25:00.618Z,-1.05
2023-02-14T05:27:44.421Z,-0.94
2023-02-14T05:30:29.015Z,-0.66
2023-02-14T05:33:13.256Z,-0.72
2023-02-14T05:35:59.674Z,-0.66
2023-02-14T05:38:44.852Z,-0.91
2023-02-14T05:41:28.843Z,-0.79
2023-02-14T05:44:12.711Z,-0.95
2023-02-14T05:46:56.733Z,-0.94
2023-02-14T05:49:40.555Z,-0.89
2023-02-14T05:52:24.483Z,-0.39
2023-02-14T05:55:10.687Z,-0.79
2023-02-14T05:57:54.651Z,-0.28
2023-02-14T06:00:41.505Z,-0.11
2023-02-14T06:03:25.588Z,0.11
2023-02-14T06:06:09.454Z,-0.02
2023-02-14T06:08:53.300Z,0.44
2023-02-14T06:11:38.578Z,0.50
2023-02-14T06:14:22.355Z,0.59
2023-02-14T06:17:06.155Z,0.99
2023-02-14T06:19:50.093Z,1.25
2023-02-14T06:22:34.018Z,1.47
2023-02-14T06:25:18.561Z,1.43
2023-02-14T06:28:03.835Z,1.56
2023-02-14T06:30:48.038Z,1.62
2023-02-14T06:33:31.969Z,1.65
2023-02-14T06:36:16.445Z,1.97
2023-02-14T06:39:00.481Z,1.76
2023-02-14T06:41:44.306Z,1.96
2023-02-14T06:44:29.588Z,2.08
2023-02-14T06:47:13.341Z,2.10
2023-02-14T06:49:57.130Z,2.15
2023-02-14T06:52:42.180Z,2.21
2023-02-14T06:55:26.251Z,2.03
2023-02-14T06:58:10.218Z,2.37
2023-02-14T07:00:57.612Z,2.58
2023-02-14T07:03:41.631Z,2.35
2023-02-14T07:06:25.711Z,2.86
2023-02-14T07:09:09.491Z,2.67
2023-02-14T07:11:53.312Z,2.90
2023-02-14T07:14:37.173Z,2.96
2023-02-14T07:17:22.446Z,2.78
2023-02-14T07:20:11.211Z,3.13
2023-02-14T07:22:55.575Z,3.13
2023-02-14T07:25:40.771Z,2.85
2023-02-14T07:28:24.571Z,3.17
2023-02-14T07:31:08.484Z,2.92
2023-02-14T07:33:53.835Z,3.01
2023-02-14T07:36:38.845Z,3.25
2023-02-14T07:39:22.948Z,3.60
2023-02-14T07:42:08.344Z,3.58
2023-02-14T07:44:52.496Z,3.56
2023-02-14T07:47:36.420Z,3.17
2023-02-14T07:50:23.650Z,3.32
2023-02-14T07:53:08.713Z,3.37
2023-02-14T07:55:53.235Z,3.48
2023-02-14T07:58:37.291Z,3.41
2023-02-14T08:01:21.693Z,3.55
2023-02-14T08:04:05.952Z,3.62
2023-02-14T08:06:51.023Z,3.79
2023-02-14T08:09:34.942Z,3.67
2023-02-14T08:12:35.847Z,3.77
2023-02-14T08:15:37.464Z,3.72
2023-02-14T08:18:23.222Z,3.97
2023-02-14T08:21:09.020Z,3.90
2023-02-14T08:23:54.392Z,3.85
2023-02-14T08:26:38.591Z,3.79
2023-02-14T08:29:22.603Z,4.37
2023-02-14T08:32:06.786Z,4.19
2023-02-14T08:34:50.731Z,4.33
2023-02-14T08:37:34.655Z,4.11
2023-02-14T08:40:20.663Z,4.44
2023-02-14T08:43:05.016Z,4.73
2023-02-14T08:45:50.630Z,4.59
2023-02-14T08:48:39.051Z,4.80
2023-02-14T08:51:23.991Z,4.70
2023-02-14T08:54:07.967Z,4.41
2023-02-14T08:56:53.183Z,4.84
2023-02-14T08:59:37.044Z,4.72
2023-02-14T09:02:21.050Z,4.78
2023-02-14T09:05:06.295Z,4.78
2023-02-14T09:07:50.282Z,5.29
2023-02-14T09:10:34.059Z,5.46
2023-02-14T09:13:19.280Z,5.70
2023-02-14T09:16:05.570Z,6.04
2023-02-14T09:18:50.884Z,6.08
2023-02-14T09:21:35.227Z,5.61
2023-02-14T09:24:19.140Z,5.75
2023-02-14T09:27:02.988Z,6.00
2023-02-14T09:29:48.238Z,6.21
2023-02-14T09:32:32.017Z,5.95
2023-02-14T09:35:16.725Z,6.20
2023-02-14T09:38:19.318Z,6.25
2023-02-14T09:41:08.071Z,6.21
2023-02-14T09:43:59.795Z,6.13
2023-02-14T09:46:49.789Z,5.97
2023-02-14T09:49:37.552Z,6.27
2023-02-14T09:52:23.875Z,6.19
2023-02-14T09:55:15.284Z,6.52
2023-02-14T09:58:07.374Z,6.57
2023-02-14T10:00:58.731Z,6.65
2023-02-14T10:04:09.808Z,6.76
2023-02-14T10:06:58.705Z,6.82
2023-02-14T10:09:53.749Z,6.63
2023-02-14T10:12:41.481Z,6.68
2023-02-14T10:15:28.880Z,7.27
2023-02-14T10:18:20.052Z,6.91
2023-02-14T10:21:08.848Z,6.75
2023-02-14T10:23:59.220Z,6.81
2023-02-14T10:26:44.617Z,6.73
2023-02-14T10:29:28.525Z,6.71
2023-02-14T10:32:16.923Z,7.05
2023-02-14T10:35:07.075Z,7.04
2023-02-14T10:38:02.520Z,7.25
2023-02-14T10:41:02.463Z,7.20
2023-02-14T10:43:55.148Z,7.11
2023-02-14T10:46:46.075Z,7.22
2023-02-14T10:49:44.076Z,7.22
2023-02-14T10:52:34.474Z,7.18
2023-02-14T10:55:32.473Z,7.44
2023-02-14T10:58:20.966Z,7.43
2023-02-14T11:01:08.587Z,7.44
2023-02-14T11:03:56.204Z,7.46
2023-02-14T11:06:40.173Z,7.53
2023-02-14T11:09:24.035Z,7.64
2023-02-14T11:12:10.356Z,7.75
2023-02-14T11:15:10.205Z,7.42
2023-02-14T11:18:11.085Z,7.33
2023-02-14T11:21:03.346Z,7.58
2023-02-14T11:23:48.807Z,7.50
2023-02-14T11:26:35.985Z,7.51
2023-02-14T11:29:28.573Z,7.32
2023-02-14T11:32:16.926Z,7.53
2023-02-14T11:35:02.880Z,7.40
2023-02-14T11:37:53.567Z,7.59
2023-02-14T11:40:39.815Z,7.70
2023-02-14T11:43:33.494Z,7.77
2023-02-14T11:46:28.105Z,7.98
2023-02-14T11:49:28.331Z,7.94
2023-02-14T11:52:17.431Z,7.86
2023-02-14T11:55:02.421Z,7.79
2023-02-14T11:57:47.756Z,8.04
2023-02-14T12:00:32.235Z,8.02
2023-02-14T12:03:20.769Z,8.31
2023-02-14T12:06:04.752Z,8.10
2023-02-14T12:08:48.660Z,8.45
2023-02-14T12:11:33.214Z,8.37
2023-02-14T12:14:23.459Z,7.80
2023-02-14T12:17:20.034Z,8.15
2023-02-14T12:20:13.402Z,8.36
2023-02-14T12:23:03.603Z,7.70
2023-02-14T12:25:54.092Z,8.06
2023-02-14T12:28:42.308Z,9.13
2023-02-14T12:31:26.703Z,8.70
2023-02-14T12:34:13.028Z,9.02
2023-02-14T12:37:13.420Z,8.94
2023-02-14T12:40:21.958Z,9.00
2023-02-14T12:43:23.439Z,8.85
2023-02-14T12:46:22.885Z,9.04
2023-02-14T12:49:23.228Z,9.25
2023-02-14T12:52:24.123Z,9.44
2023-02-14T12:55:28.548Z,9.24
2023-02-14T12:58:23.967Z,9.70
2023-02-14T13:01:38.732Z,9.08
2023-02-14T13:04:41.056Z,9.69
2023-02-14T13:07:44.839Z,8.77
2023-02-14T13:10:46.654Z,8.89
2023-02-14T13:13:42.541Z,8.59
2023-02-14T13:16:35.417Z,8.35
2023-02-14T13:19:34.913Z,8.79
2023-02-14T13:22:21.823Z,8.51
2023-02-14T13:25:14.784Z,9.19
2023-02-14T13:27:59.611Z,8.47
2023-02-14T13:30:43.437Z,9.21
2023-02-14T13:33:34.749Z,9.03
2023-02-14T13:36:20.044Z,8.94
2023-02-14T13:39:05.484Z,9.10
2023-02-14T13:41:50.931Z,9.06
2023-02-14T13:44:44.302Z,8.93
2023-02-14T13:47:28.556Z,8.38
2023-02-14T13:50:22.170Z,7.99
2023-02-14T13:53:06.076Z,7.87
2023-02-14T13:55:55.928Z,7.69
2023-02-14T13:58:48.405Z,7.37
2023-02-14T14:01:39.083Z,6.98
2023-02-14T14:04:37.380Z,7.19
2023-02-14T14:07:24.441Z,7.11
2023-02-14T14:10:13.059Z,7.04
2023-02-14T14:12:57.909Z,7.22
2023-02-14T14:16:21.340Z,7.61
2023-02-14T14:19:11.741Z,7.37
2023-02-14T14:22:03.293Z,7.30
2023-02-14T14:24:54.817Z,7.21
2023-02-14T14:27:45.359Z,7.20
2023-02-14T14:30:33.570Z,6.79
2023-02-14T14:33:28.059Z,7.00
2023-02-14T14:36:23.210Z,7.18
2023-02-14T14:39:07.008Z,7.26
2023-02-14T14:41:51.005Z,6.53
2023-02-14T14:44:36.716Z,7.34
2023-02-14T14:47:24.529Z,7.17
2023-02-14T14:50:17.453Z,6.92
2023-02-14T14:53:04.265Z,6.79
2023-02-14T14:55:52.081Z,7.05
2023-02-14T14:58:38.694Z,6.98
2023-02-14T15:01:34.496Z,6.68
2023-02-14T15:04:20.874Z,6.84
2023-02-14T15:07:21.068Z,6.54
2023-02-14T15:10:05.492Z,6.41
2023-02-14T15:13:07.069Z,6.51
2023-02-14T15:15:52.835Z,6.32
2023-02-14T15:18:36.912Z,6.33
2023-02-14T15:21:21.396Z,6.10
2023-02-14T15:24:14.612Z,5.94
2023-02-14T15:26:58.957Z,5.81
2023-02-14T15:29:42.965Z,5.88
2023-02-14T15:32:29.375Z,5.94
2023-02-14T15:35:16.242Z,5.83
2023-02-14T15:38:03.817Z,5.46
2023-02-14T15:40:49.220Z,5.18
2023-02-14T15:43:34.703Z,5.35
2023-02-14T15:46:27.615Z,5.10
2023-02-14T15:49:16.930Z,4.96
2023-02-14T15:52:04.140Z,4.74
2023-02-14T15:54:49.024Z,4.47
2023-02-14T15:57:35.342Z,4.55
2023-02-14T16:00:22.341Z,4.30
2023-02-14T16:03:09.544Z,4.26
2023-02-14T16:05:54.825Z,4.10
2023-02-14T16:08:41.760Z,3.75
2023-02-14T16:11:31.391Z,3.95
2023-02-14T16:14:31.352Z,4.05
2023-02-14T16:17:34.435Z,3.99
2023-02-14T16:20:25.224Z,4.03
2023-02-14T16:23:19.658Z,4.02
2023-02-14T16:26:03.616Z,4.00
2023-02-14T16:28:47.466Z,3.80
2023-02-14T16:31:33.480Z,3.99
2023-02-14T16:34:17.837Z,4.01
2023-02-14T16:37:08.625Z,4.13
2023-02-14T16:39:56.731Z,4.01
2023-02-14T16:42:41.115Z,4.11
2023-02-14T16:45:25.109Z,3.95
2023-02-14T16:48:10.768Z,4.33
2023-02-14T16:50:54.789Z,4.32
2023-02-14T16:53:38.670Z,3.16
2023-02-14T16:56:26.834Z,4.25
2023-02-14T16:59:11.773Z,4.16
2023-02-14T17:01:55.563Z,4.15
2023-02-14T17:04:41.021Z,4.13
2023-02-14T17:07:25.058Z,4.38
2023-02-14T17:10:17.570Z,4.28
2023-02-14T17:13:03.546Z,4.25
2023-02-14T17:15:47.524Z,4.44
2023-02-14T17:18:33.207Z,4.53
2023-02-14T17:21:22.173Z,4.48
2023-02-14T17:24:06.098Z,4.55
2023-02-14T17:26:49.896Z,4.57
2023-02-14T17:29:33.682Z,4.33
2023-02-14T17:32:17.598Z,4.54
2023-02-14T17:35:03.584Z,4.39
2023-02-14T17:37:49.520Z,4.33
2023-02-14T17:40:33.465Z,4.29
2023-02-14T17:43:17.278Z,4.40
2023-02-14T17:46:01.033Z,4.43
2023-02-14T17:48:45.713Z,4.14
2023-02-14T17:51:30.006Z,4.16
2023-02-14T17:54:15.248Z,4.02
2023-02-14T17:56:58.908Z,4.10
2023-02-14T17:59:45.449Z,4.24
2023-02-14T18:02:29.622Z,4.39
2023-02-14T18:05:13.465Z,4.35
2023-02-14T18:07:57.906Z,4.33
2023-02-14T18:10:43.074Z,4.39
2023-02-14T18:13:27.074Z,4.23
2023-02-14T18:16:12.628Z,4.38
2023-02-14T18:18:56.529Z,4.29
2023-02-14T18:21:41.077Z,4.32
2023-02-14T18:24:24.937Z,4.74
2023-02-14T18:27:10.609Z,4.32
2023-02-14T18:29:54.602Z,4.61
2023-02-14T18:32:38.404Z,4.45
2023-02-14T18:35:22.258Z,4.65
2023-02-14T18:38:06.588Z,4.57
2023-02-14T18:40:51.654Z,4.58
2023-02-14T18:43:37.908Z,4.48
2023-02-14T18:46:23.805Z,4.24
2023-02-14T18:49:08.747Z,4.23
2023-02-14T18:51:52.505Z,4.11
2023-02-14T18:54:36.483Z,3.84
2023-02-14T18:57:20.340Z,4.15
2023-02-14T19:00:12.143Z,3.99
2023-02-14T19:02:56.242Z,3.77
2023-02-14T19:05:40.070Z,3.85
2023-02-14T19:08:23.875Z,3.62
2023-02-14T19:11:12.630Z,3.62
2023-02-14T19:13:58.336Z,3.93
2023-02-14T19:16:50.511Z,4.02
2023-02-14T19:19:36.058Z,3.74
2023-02-14T19:22:20.112Z,3.82
2023-02-14T19:25:03.856Z,4.06
2023-02-14T19:27:48.181Z,4.20
2023-02-14T19:30:31.941Z,4.10
2023-02-14T19:33:17.383Z,3.83
2023-02-14T19:36:02.335Z,3.96
2023-02-14T19:38:48.162Z,4.03
2023-02-14T19:41:34.657Z,3.98
2023-02-14T19:44:20.192Z,3.99
2023-02-14T19:47:15.686Z,3.92
2023-02-14T19:50:10.814Z,3.67
2023-02-14T19:52:54.877Z,3.63
2023-02-14T19:55:40.446Z,3.51
2023-02-14T19:58:26.114Z,3.94
2023-02-14T20:01:21.745Z,4.02
2023-02-14T20:04:07.592Z,3.83
2023-02-14T20:06:54.220Z,3.82
2023-02-14T20:09:38.873Z,3.67
2023-02-14T20:12:22.938Z,3.79
2023-02-14T20:15:10.623Z,3.83
2023-02-14T20:17:54.764Z,3.82
2023-02-14T20:20:52.523Z,3.81
2023-02-14T20:23:38.030Z,3.33
2023-02-14T20:26:23.351Z,3.33
2023-02-14T20:29:09.823Z,3.57
2023-02-14T20:31:55.927Z,3.53
2023-02-14T20:34:40.441Z,3.23
2023-02-14T20:37:24.507Z,3.27
2023-02-14T20:40:12.465Z,2.97
2023-02-14T20:42:56.460Z,3.50
2023-02-14T20:45:40.412Z,3.09
2023-02-14T20:48:24.333Z,3.44
2023-02-14T20:51:13.123Z,3.45
2023-02-14T20:53:57.074Z,3.57
2023-02-14T20:56:42.542Z,3.56
2023-02-14T20:59:28.759Z,3.52
2023-02-14T21:02:13.082Z,3.68
2023-02-14T21:05:00.289Z,3.68
2023-02-14T21:07:44.095Z,3.67
2023-02-14T21:10:28.322Z,3.76
2023-02-14T21:13:13.563Z,3.87
2023-02-14T21:16:02.873Z,3.59
2023-02-14T21:18:52.475Z,3.72
2023-02-14T21:21:38.183Z,3.59
2023-02-14T21:24:21.991Z,3.43
2023-02-14T21:27:06.251Z,3.80
2023-02-14T21:29:51.933Z,3.64
2023-02-14T21:32:35.676Z,3.97
2023-02-14T21:35:19.904Z,3.68
2023-02-14T21:38:03.969Z,3.45
2023-02-14T21:40:48.180Z,3.64
2023-02-14T21:43:34.480Z,3.71
2023-02-14T21:46:24.657Z,3.50
2023-02-14T21:49:26.275Z,3.98
2023-02-14T21:52:10.234Z,3.91
2023-02-14T21:54:54.239Z,3.44
2023-02-14T21:57:38.199Z,3.73
2023-02-14T22:00:23.646Z,3.62
2023-02-14T22:03:09.439Z,3.55
2023-02-14T22:05:54.418Z,3.51
2023-02-14T22:08:38.476Z,3.43
2023-02-14T22:11:23.028Z,3.60
2023-02-14T22:14:07.191Z,3.71
2023-02-14T22:16:51.248Z,3.07
2023-02-14T22:19:37.322Z,3.23
2023-02-14T22:22:21.915Z,3.39
2023-02-14T22:25:06.300Z,3.45
2023-02-14T22:27:50.275Z,3.48
2023-02-14T22:30:34.285Z,3.08
2023-02-14T22:33:18.273Z,3.17
2023-02-14T22:36:04.114Z,3.69
2023-02-14T22:38:48.237Z,3.40
2023-02-14T22:41:33.187Z,3.49
2023-02-14T22:44:17.110Z,3.51
2023-02-14T22:47:01.396Z,3.31
2023-02-14T22:49:45.399Z,3.24
2023-02-14T22:52:30.792Z,3.39
2023-02-14T22:55:14.698Z,3.43
2023-02-14T22:57:58.850Z,3.44
2023-02-14T23:00:42.764Z,3.80
2023-02-14T23:03:26.765Z,3.51
2023-02-14T23:06:11.524Z,3.67
2023-02-14T23:08:57.895Z,3.98
2023-02-14T23:11:44.050Z,3.35
2023-02-14T23:14:45.631Z,4.34
2023-02-14T23:17:46.505Z,3.76
2023-02-14T23:20:48.439Z,4.27
2023-02-14T23:23:32.589Z,4.33
2023-02-14T23:26:21.657Z,4.16
2023-02-14T23:29:05.701Z,4.11
2023-02-14T23:31:49.875Z,3.77
2023-02-14T23:34:36.323Z,4.25
2023-02-14T23:37:20.432Z,4.26
2023-02-14T23:40:04.669Z,4.02
2023-02-14T23:42:50.407Z,4.13
2023-02-14T23:45:38.720Z,3.52
2023-02-14T23:48:22.638Z,4.01
2023-02-14T23:51:06.480Z,3.95
2023-02-14T23:53:50.461Z,3.86
2023-02-14T23:56:35.004Z,3.84
2023-02-14T23:59:21.534Z,3.85
